AirNav   Air Wisconsin Up To $57,000 Bonus
 
 468 users online  

T26 Flying V Ranch Airport
Louise, Texas, USA

GOING TO LOUISE?


FAA INFORMATION EFFECTIVE 11 AUGUST 2022

Location

FAA Identifier: T26
Lat/Long: 29-06-29.8000N 096-23-55.6000W
29-06.496667N 096-23.926667W
29.1082778,-96.3987778
(estimated)
Elevation: 60 ft. / 18 m (estimated)
Variation: 06E (1995)
From city: 1 mile SE of LOUISE, TX
Time zone: UTC -5 (UTC -6 during Standard Time)
Zip code: 77455

Airport Operations

Airport use: Open to the public
Activation date: 06/1997
Control tower: no
ARTCC: HOUSTON CENTER
FSS: MONTGOMERY COUNTY FLIGHT SERVICE STATION
NOTAMs facility: CXO (NOTAM-D service available)
Attendance: CONTINUOUS
Wind indicator: yes
Segmented circle: no

Airport Communications

CTAF/UNICOM: 122.8
WX AWOS-3 at ARM (16 nm NE): 118.475 (979-532-2791)

Nearby radio navigation aids

VOR radial/distance  VOR name  Freq  Var
PSXr339/21.2PALACIOS VORTAC117.3008E
VCTr062/32.9VICTORIA VOR/DME109.0006E
ELAr179/33.5EAGLE LAKE VOR/DME116.4008E

Airport Services

Parking: tiedowns
Airframe service: MAJOR
Powerplant service: MAJOR

Runway Information

Runway 14/32

Dimensions: 2990 x 80 ft. / 911 x 24 m
Surface: turf, in good condition
Operational restrictions: RWY 14 CREEK/RAVINE 10-15 FT DROP-OFF AT THR EAST SIDE OF CNTRLN.
RUNWAY 14  RUNWAY 32
Traffic pattern: leftright
Obstructions: 45 ft. tree, 86 ft. right of centerline
APCH SLOPE 8:1 BASED ON STRAIGHT OUT OVR 27 FT TREES, 220 FT DSTC.
40 ft. tree, 75 ft. right of centerline
+4 FT FENCE PARALLEL TO RWY CNTRLN 50 FT L IN PRIM SFC.

Airport Ownership and Management from official FAA records

Ownership: Privately-owned
Owner: ROBERT C VAJDOS, JR.
PO BOX 367
LOUISE, TX 77455
Phone 979-648-2163
Manager: ROBBIE VAJDOS
PO BOX 367
LOUISE, TX 77455
Phone 979-541-3321

Airport Operational Statistics

Aircraft based on the field: 5
Single engine airplanes: 5
    
Aircraft operations: avg 29/week *
67% local general aviation
33% transient general aviation
* for 12-month period ending 02 May 2020

Additional Remarks

RWY EDGE MKD WITH WHITE TIRES.
RWY 32, 4 FT BERM 60 FT FM THR ACRS APCH.
FOR CD CTC HOUSTON ARTCC AT 281-230-5622.

Instrument Procedures

There are no published instrument procedures at T26.

Some nearby airports with instrument procedures:

26R - Jackson County Airport (12 nm SW)
KARM - Wharton Regional Airport (16 nm NE)
KPSX - Palacios Municipal Airport (24 nm S)
KBYY - Bay City Regional Airport (29 nm E)
KELA - Eagle Lake Airport (30 nm N)
 
Loc | Ops | Rwys | IFR | FBO | Links
Com | Nav | Svcs | Stats | Notes
Area around T26 (Flying V Ranch Airport)
 
Road maps at: MapQuest Bing Google
 
Aerial photo
WARNING: Photo may not be current or correct
Aerial photo of T26 (Flying V Ranch Airport)
Photo taken 08-Sep-2007

Do you have a better or more recent aerial photo of Flying V Ranch Airport that you would like to share? If so, please send us your photo.

 
Sectional chart

 
Airport distance calculator
Flying to Flying V Ranch Airport? Find the distance to fly.

From to T26

Sunrise and sunset
Times for 13-Aug-2022
 Local
(UTC-5)
 Zulu
(UTC)
Morning civil twilight06:2911:29
Sunrise06:5411:54
Sunset20:0701:07
Evening civil twilight20:3201:32

Current date and time
Zulu (UTC)  13-Aug-2022 08:33:38
Local (UTC-5)  13-Aug-2022 03:33:38
 
METAR
KARM 
16nm NE 
130815Z AUTO 00000KT 7SM SCT040 BKN050 OVC065 24/24 A2996 RMK AO2 LTG DSNT SE T02420238
KPSX 
25nm S 
130753Z AUTO 35003KT 6SM BR FEW050 FEW080 26/24 A2994 RMK AO2 SLP137 T02560239 $
KBYY 
29nm E 
130815Z AUTO 35003KT 5SM BR BKN030 BKN035 OVC090 24/23 A2995 RMK AO2 T02470240
KELA 
30nm N 
130815Z AUTO 00000KT 7SM CLR 25/24 A2997 RMK AO2 LTG DSNT S T02460238
TAF
KVCT 
32nm SW 
130538Z 1306/1406 VRB02KT P6SM SCT250 FM131000 36005KT P6SM VCSH SCT020 BKN035 FM131600 03008KT P6SM VCTS OVC030CB TEMPO 1318/1322 VRB20G30KT 2SM TSRA OVC030CB FM132300 09012KT P6SM SCT040 BKN200 FM140200 16008KT P6SM VCSH OVC025 TEMPO 1405/1406 2SM SHRA OVC015
NOTAMs
Click for the latest NOTAMs
NOTAMs are issued by the DoD/FAA and will open in a separate window not controlled by AirNav.

 

 
 

Where to Eat: Catering, Restaurants, Food shops

  
 Business Name 
 
 Contact 
 
 Services / Description 
 
Distance
 
Comments
  
Antique Eatery 979-648-2550
no information available

If you are affiliated with Antique Eatery and would like to show here your services, contact info, web link, logo, and more, click here
0.4 miles  
   write
 

Would you like to see your business listed on this page?

 If your business provides an interesting product or service to pilots, flight crews, aircraft, or users of the Flying V Ranch Airport, you should consider listing it here.  To start the listing process, click on the button below
 
Add a business
 

Other Pages about Flying V Ranch Airport

Update a link
 
Copyright © AirNav, LLC. All rights reserved. Privacy Policy  Contact